Time;durP1;ratioP1;P1;durP2;ratioP2;P2;SDS_P1;SDS_P2;PMS_P1;PMS_P2;Temp;Humidity;BMP_temperature;BMP_pressure;BME280_temperature;BME280_humidity;BME280_pressure;Samples;Min_cycle;Max_cycle;Signal;HPM_P1;HPM_P2
2022/12/15 00:40:15;;;;;;;28.00;13.18;;;;;;;-2.11;78.33;96948.09;5029407;28;20107;-87
2022/12/15 00:42:41;;;;;;;30.33;14.40;;;;;;;-2.26;78.71;96945.25;5036920;28;20058;-87
2022/12/15 00:45:08;;;;;;;33.28;15.80;;;;;;;-2.25;78.52;96946.06;5033391;28;20480;-87
2022/12/15 00:47:34;;;;;;;33.45;15.23;;;;;;;-2.16;78.76;96952.88;5035524;28;20153;-87
2022/12/15 01:20:33;;;;;;;30.38;13.18;;;;;;;-2.34;78.44;97001.69;5032923;28;20119;-86
2022/12/15 01:22:59;;;;;;;29.70;13.75;;;;;;;-2.45;79.03;96992.44;5025620;28;20037;-86
2022/12/15 01:25:26;;;;;;;31.40;13.98;;;;;;;-2.36;79.54;96992.50;5030530;28;20384;-87
2022/12/15 01:27:52;;;;;;;29.75;13.50;;;;;;;-2.27;79.23;96994.22;5021981;28;20057;-86
2022/12/15 01:30:21;;;;;;;30.98;14.63;;;;;;;-2.09;79.48;96997.59;5032760;28;20075;-87
2022/12/15 01:32:47;;;;;;;29.88;12.95;;;;;;;-1.99;78.84;97013.72;5032709;28;20432;-87
2022/12/15 01:35:13;;;;;;;34.92;14.63;;;;;;;-1.95;77.77;97020.19;5025594;28;20045;-87
2022/12/15 01:37:39;;;;;;;33.25;15.48;;;;;;;-2.06;77.39;97017.84;5033251;28;20033;-86
2022/12/15 01:42:54;;;;;;;31.50;14.27;;;;;;;-2.27;78.36;97019.91;5031245;28;20040;-86
2022/12/15 01:45:22;;;;;;;30.73;13.93;;;;;;;-2.24;78.49;97024.72;5031802;28;20029;-86
2022/12/15 01:47:57;;;;;;;36.25;15.90;;;;;;;-2.24;78.89;97028.09;5020744;28;20080;-86
2022/12/15 01:50:25;;;;;;;30.45;15.80;;;;;;;-2.32;78.79;97022.88;5031277;28;20033;-86
2022/12/15 01:52:54;;;;;;;36.03;15.30;;;;;;;-2.44;78.86;97037.69;5034102;28;20060;-86
2022/12/15 01:55:26;;;;;;;39.30;16.83;;;;;;;-2.49;79.44;97047.59;5030396;28;20099;-86
2022/12/15 01:58:00;;;;;;;36.35;15.93;;;;;;;-2.65;80.06;97033.75;5032376;28;20037;-87
2022/12/15 02:00:26;;;;;;;35.10;15.50;;;;;;;-2.56;80.05;97046.53;5013112;28;20033;-86
2022/12/15 02:02:54;;;;;;;36.75;16.38;;;;;;;-2.64;80.47;97051.56;5029296;28;20041;-86
2022/12/15 02:05:21;;;;;;;30.38;14.52;;;;;;;-2.62;80.63;97061.72;5029033;28;20021;-86
2022/12/15 02:07:46;;;;;;;33.80;15.50;;;;;;;-2.61;80.80;97051.28;5031166;28;20063;-86
2022/12/15 02:10:13;;;;;;;33.65;15.18;;;;;;;-2.61;80.12;97045.34;5030521;28;20033;-86
2022/12/15 02:12:46;;;;;;;31.75;13.48;;;;;;;-2.60;80.18;97045.19;5032209;28;20053;-87
2022/12/15 02:15:33;;;;;;;30.88;14.70;;;;;;;-2.49;80.30;97047.59;5032516;28;20037;-87
2022/12/15 02:18:12;;;;;;;34.78;14.60;;;;;;;-2.35;79.92;97059.13;5035723;28;20685;-86
2022/12/15 02:21:06;;;;;;;32.42;14.45;;;;;;;-2.24;79.02;97070.97;5032123;28;20033;-87
2022/12/15 02:24:02;;;;;;;29.13;13.70;;;;;;;-2.16;79.14;97079.56;5024981;28;20038;-86
2022/12/15 02:27:14;;;;;;;26.88;12.98;;;;;;;-2.06;78.38;97079.50;5031308;28;20041;-86
2022/12/15 02:29:58;;;;;;;37.17;14.57;;;;;;;-2.00;77.83;97084.06;5027005;28;20040;-86
2022/12/15 02:32:32;;;;;;;30.13;12.57;;;;;;;-2.12;77.68;97074.94;5026980;28;20053;-87
2022/12/15 02:35:08;;;;;;;31.45;12.45;;;;;;;-2.37;78.31;97078.19;5024626;28;20046;-87
2022/12/15 02:37:38;;;;;;;29.55;13.30;;;;;;;-2.61;79.58;97076.97;5018293;28;20072;-87
2022/12/15 02:40:08;;;;;;;30.88;13.38;;;;;;;-2.73;80.24;97070.41;5031574;28;20374;-87
2022/12/15 02:42:43;;;;;;;33.13;14.43;;;;;;;-2.53;80.71;97074.47;5031353;28;20044;-86
2022/12/15 02:45:14;;;;;;;37.30;15.13;;;;;;;-2.47;79.58;97078.25;5024745;28;20120;-87
2022/12/15 02:48:17;;;;;;;35.95;14.50;;;;;;;-2.40;79.35;97068.19;5029281;28;20033;-87
2022/12/15 02:51:31;;;;;;;30.70;13.32;;;;;;;-2.55;79.61;97073.81;5032360;28;20478;-86
2022/12/15 02:54:21;;;;;;;29.92;13.02;;;;;;;-2.46;79.66;97072.16;5011886;28;20079;-87
2022/12/15 02:57:18;;;;;;;28.30;12.40;;;;;;;-2.61;79.51;97071.81;5036917;28;20041;-87
2022/12/15 03:00:10;;;;;;;29.67;13.13;;;;;;;-2.85;79.99;97064.63;5029975;28;20033;-87
2022/12/15 03:02:43;;;;;;;28.58;11.95;;;;;;;-2.84;80.91;97061.13;5030307;28;20033;-87
2022/12/15 03:05:11;;;;;;;28.13;12.90;;;;;;;-2.92;81.11;97080.75;5021283;28;20030;-86
2022/12/15 03:07:36;;;;;;;29.50;13.60;;;;;;;-3.08;81.45;97069.28;5015655;28;20038;-87
2022/12/15 03:10:05;;;;;;;35.55;14.68;;;;;;;-3.10;82.47;97091.72;5028208;28;20037;-87
2022/12/15 03:12:30;;;;;;;32.00;14.13;;;;;;;-3.03;82.06;97081.72;5031284;28;20036;-86
2022/12/15 03:14:56;;;;;;;32.25;14.32;;;;;;;-2.91;81.83;97066.94;5030746;28;20029;-87
2022/12/15 03:17:23;;;;;;;29.02;12.75;;;;;;;-2.99;81.10;97075.34;5029840;28;20116;-87
2022/12/15 03:19:50;;;;;;;34.67;14.98;;;;;;;-3.01;81.49;97083.16;5020700;28;20042;-86
2022/12/15 03:22:16;;;;;;;30.83;13.45;;;;;;;-3.07;81.54;97083.72;5024912;28;20488;-87
2022/12/15 03:24:42;;;;;;;31.10;14.80;;;;;;;-2.94;81.72;97096.25;5031345;28;20038;-86
2022/12/15 03:27:07;;;;;;;30.80;13.18;;;;;;;-3.00;81.51;97078.84;5030819;28;20041;-87
2022/12/15 03:29:33;;;;;;;35.10;14.52;;;;;;;-2.77;80.99;97094.72;5027222;28;20644;-87
2022/12/15 03:31:59;;;;;;;32.22;14.63;;;;;;;-2.82;80.67;97081.50;5025450;28;20087;-87
2022/12/15 03:34:25;;;;;;;32.20;15.00;;;;;;;-2.84;80.89;97093.66;5030676;28;20129;-87
2022/12/15 03:36:50;;;;;;;29.80;13.63;;;;;;;-2.73;80.66;97114.84;5030111;28;20029;-87
2022/12/15 03:39:16;;;;;;;33.80;14.50;;;;;;;-2.68;80.96;97093.88;5029378;28;20120;-88
2022/12/15 03:41:41;;;;;;;30.30;14.40;;;;;;;-2.51;80.57;97085.44;5024613;28;20120;-87
2022/12/15 03:44:10;;;;;;;31.02;14.68;;;;;;;-2.31;79.98;97111.81;5028142;28;20037;-87
2022/12/15 03:46:36;;;;;;;32.75;14.60;;;;;;;-2.27;78.95;97113.16;5036706;28;20496;-87
2022/12/15 03:49:04;;;;;;;26.02;11.13;;;;;;;-2.54;78.54;97093.41;5029032;28;20037;-87
2022/12/15 03:51:30;;;;;;;29.48;13.70;;;;;;;-2.53;79.47;97120.69;5030685;28;20041;-87
2022/12/15 03:53:57;;;;;;;29.25;13.45;;;;;;;-2.73;80.24;97098.63;5026375;28;20365;-87
2022/12/15 03:56:23;;;;;;;33.45;14.00;;;;;;;-2.63;79.93;97101.16;5030545;28;20037;-87
2022/12/15 03:58:49;;;;;;;32.97;14.82;;;;;;;-2.66;79.88;97086.03;5030590;28;20048;-87
2022/12/15 04:01:24;;;;;;;30.98;13.88;;;;;;;-2.40;79.65;97106.72;5029339;28;20465;-88
2022/12/15 04:03:50;;;;;;;33.70;15.43;;;;;;;-2.73;79.73;97096.88;5026983;28;20041;-87
2022/12/15 04:06:21;;;;;;;30.98;12.73;;;;;;;-2.73;80.05;97117.41;5009764;28;20401;-87
2022/12/15 04:08:50;;;;;;;30.20;13.55;;;;;;;-2.70;80.62;97098.34;5026508;28;20029;-87
2022/12/15 04:11:17;;;;;;;29.83;13.88;;;;;;;-2.51;80.18;97088.00;5029651;28;20520;-87
2022/12/15 04:13:44;;;;;;;30.92;14.40;;;;;;;-2.34;79.60;97090.75;5030515;28;20037;-87
2022/12/15 04:16:10;;;;;;;32.45;13.88;;;;;;;-2.09;79.14;97115.78;5029314;28;20436;-87
2022/12/15 04:18:36;;;;;;;29.67;14.23;;;;;;;-2.08;78.66;97101.97;5030260;28;20029;-87
2022/12/15 04:21:02;;;;;;;33.10;14.88;;;;;;;-2.07;77.82;97118.19;5018144;28;20068;-87
2022/12/15 04:23:27;;;;;;;32.88;15.05;;;;;;;-2.08;77.91;97119.94;5022135;28;20037;-87
2022/12/15 05:32:17;;;;;;;27.83;13.35;;;;;;;-2.07;77.17;97178.09;5026125;28;20212;-88
2022/12/15 05:34:43;;;;;;;30.55;14.23;;;;;;;-2.18;77.34;97168.00;5029543;28;20132;-87
2022/12/15 05:37:08;;;;;;;33.40;13.70;;;;;;;-2.26;77.17;97175.63;5028494;28;20037;-88
2022/12/15 05:39:34;;;;;;;30.95;14.05;;;;;;;-2.42;78.00;97163.38;5029298;28;20567;-88
2022/12/15 05:41:59;;;;;;;26.35;13.65;;;;;;;-2.56;78.42;97171.53;5030465;28;20033;-87
2022/12/15 05:44:25;;;;;;;36.83;14.98;;;;;;;-2.90;79.60;97184.84;5033111;28;20554;-87
2022/12/15 05:46:51;;;;;;;37.05;14.77;;;;;;;-2.86;80.38;97214.41;5031289;28;20037;-87
2022/12/15 05:49:18;;;;;;;34.60;14.25;;;;;;;-2.69;80.39;97212.91;5032373;28;20033;-87
2022/12/15 05:51:46;;;;;;;29.73;13.63;;;;;;;-2.44;80.14;97201.22;5032349;28;20029;-87
2022/12/15 05:54:17;;;;;;;29.25;13.38;;;;;;;-2.33;79.50;97211.34;5032300;28;20029;-87
2022/12/15 05:56:43;;;;;;;34.83;14.77;;;;;;;-2.49;78.78;97213.66;5031073;28;20087;-87
2022/12/15 05:59:08;;;;;;;34.88;14.43;;;;;;;-2.53;79.18;97202.06;5044298;28;20033;-87
2022/12/15 06:01:35;;;;;;;30.30;14.02;;;;;;;-2.32;79.04;97212.94;5029256;28;20033;-87
2022/12/15 06:04:01;;;;;;;31.85;13.77;;;;;;;-2.57;78.76;97188.69;5027351;28;20068;-88
2022/12/15 06:06:44;;;;;;;33.38;14.38;;;;;;;-2.47;78.87;97199.72;5031884;28;20061;-88
2022/12/15 06:09:09;;;;;;;30.63;13.95;;;;;;;-2.47;78.80;97189.47;5030819;28;20087;-87
2022/12/15 06:11:36;;;;;;;31.40;14.48;;;;;;;-2.47;78.63;97199.72;5032442;28;20033;-87
2022/12/15 06:14:02;;;;;;;33.15;15.20;;;;;;;-2.54;78.74;97214.09;5032376;28;20022;-87
2022/12/15 06:16:27;;;;;;;33.70;15.02;;;;;;;-2.67;79.56;97208.44;5032283;28;20080;-87
2022/12/15 06:18:57;;;;;;;32.72;14.80;;;;;;;-2.66;79.80;97230.59;5031708;28;20041;-87
2022/12/15 06:21:27;;;;;;;31.05;13.80;;;;;;;-2.64;79.08;97226.13;5020674;28;20481;-88
2022/12/15 06:23:54;;;;;;;32.70;13.55;;;;;;;-2.78;79.52;97221.44;5030651;28;20025;-87
2022/12/15 06:26:30;;;;;;;33.28;14.50;;;;;;;-2.82;79.98;97226.03;5029043;28;20040;-87
2022/12/15 06:29:01;;;;;;;35.67;15.45;;;;;;;-2.80;80.47;97211.31;5032258;28;20482;-88
2022/12/15 06:31:31;;;;;;;32.95;14.77;;;;;;;-2.70;79.86;97203.56;5021475;28;20037;-88
2022/12/15 06:33:57;;;;;;;28.38;14.73;;;;;;;-2.43;79.52;97224.19;5019101;28;20049;-87
2022/12/15 06:36:27;;;;;;;35.00;15.63;;;;;;;-2.47;79.00;97215.13;5031846;28;20481;-88
2022/12/15 06:38:53;;;;;;;33.03;16.08;;;;;;;-2.32;78.22;97224.97;5027296;28;20389;-88
2022/12/15 06:41:21;;;;;;;30.75;13.88;;;;;;;-2.30;77.99;97230.78;5011939;28;20044;-86
2022/12/15 06:43:52;;;;;;;29.52;13.35;;;;;;;-2.17;77.62;97241.53;5010432;28;20045;-87
2022/12/15 06:46:26;;;;;;;33.88;14.93;;;;;;;-2.25;77.73;97210.63;5015259;28;20045;-88
2022/12/15 06:48:52;;;;;;;33.78;14.23;;;;;;;-2.22;77.02;97223.16;5030260;28;20029;-88
2022/12/15 06:51:17;;;;;;;28.60;13.73;;;;;;;-2.05;76.88;97239.59;5030197;28;20064;-87
2022/12/15 06:53:52;;;;;;;29.00;15.07;;;;;;;-2.20;77.16;97241.84;5031992;28;20380;-87
2022/12/15 06:56:28;;;;;;;33.40;15.27;;;;;;;-2.09;76.98;97259.66;5017741;28;20065;-87
2022/12/15 06:58:54;;;;;;;30.27;14.35;;;;;;;-2.08;76.60;97253.56;5024420;28;20449;-87
2022/12/15 07:01:22;;;;;;;33.88;14.68;;;;;;;-2.14;76.76;97243.84;5031544;28;20043;-87
2022/12/15 07:03:48;;;;;;;30.83;13.20;;;;;;;-2.23;76.60;97221.56;5028995;28;20038;-87
2022/12/15 07:06:16;;;;;;;30.92;14.43;;;;;;;-2.19;76.52;97249.41;5030663;28;20017;-87
2022/12/15 07:08:43;;;;;;;30.05;14.68;;;;;;;-2.31;76.65;97244.56;5027733;28;20033;-87
2022/12/15 07:11:11;;;;;;;33.55;14.18;;;;;;;-2.36;77.10;97252.69;5030778;28;20480;-86
2022/12/15 07:13:37;;;;;;;33.58;15.00;;;;;;;-2.68;77.32;97239.38;5030634;28;20044;-87
2022/12/15 07:16:06;;;;;;;30.98;16.13;;;;;;;-2.60;77.36;97250.56;5029547;28;20029;-87
2022/12/15 07:18:32;;;;;;;32.95;15.25;;;;;;;-2.76;77.80;97283.69;5025684;28;20473;-86
2022/12/15 07:21:07;;;;;;;32.25;13.75;;;;;;;-3.03;78.54;97259.53;5016214;28;20038;-87
2022/12/15 07:23:34;;;;;;;39.00;17.15;;;;;;;-2.80;78.42;97275.47;5028296;28;20067;-87
2022/12/15 07:26:08;;;;;;;34.53;14.18;;;;;;;-2.99;78.60;97276.28;5024071;28;20042;-86
2022/12/15 07:28:36;;;;;;;30.25;15.07;;;;;;;-3.17;79.31;97287.34;5042204;28;20049;-86
2022/12/15 07:31:08;;;;;;;31.60;13.43;;;;;;;-3.40;80.33;97304.72;5029273;28;20068;-86
2022/12/15 07:33:36;;;;;;;31.92;14.30;;;;;;;-3.61;81.07;97292.75;5030092;28;20331;-87
2022/12/15 07:36:03;;;;;;;33.42;14.02;;;;;;;-3.55;80.73;97289.69;5029852;28;20033;-87
2022/12/15 07:38:29;;;;;;;29.80;13.05;;;;;;;-3.55;80.29;97292.25;5043990;28;20035;-88
2022/12/15 07:40:58;;;;;;;27.52;13.05;;;;;;;-3.41;80.28;97288.53;5030782;28;20100;-88
2022/12/15 07:43:24;;;;;;;31.65;14.25;;;;;;;-3.45;79.83;97273.53;5045017;28;20030;-87
2022/12/15 07:45:55;;;;;;;28.00;11.88;;;;;;;-3.71;79.93;97263.75;5030641;28;20451;-87
2022/12/15 07:48:20;;;;;;;33.33;15.50;;;;;;;-3.73;80.55;97265.63;5029289;28;20469;-88
2022/12/15 07:50:46;;;;;;;30.30;14.27;;;;;;;-3.79;80.83;97287.44;5029959;28;20113;-87
2022/12/15 07:53:12;;;;;;;34.92;14.80;;;;;;;-3.81;81.17;97280.84;5030243;28;20030;-87
2022/12/15 07:55:38;;;;;;;38.75;15.93;;;;;;;-3.62;80.90;97269.84;5030202;28;20044;-87
2022/12/15 07:58:03;;;;;;;35.90;16.42;;;;;;;-3.39;80.51;97288.38;5027461;28;20113;-87
2022/12/15 08:00:29;;;;;;;39.67;18.83;;;;;;;-3.35;79.85;97282.84;5025720;28;21090;-87
2022/12/15 08:02:55;;;;;;;34.67;16.05;;;;;;;-3.20;78.92;97298.66;5029377;28;20034;-87
2022/12/15 08:05:20;;;;;;;41.92;17.52;;;;;;;-3.29;79.13;97289.22;5026299;28;20372;-86
2022/12/15 08:08:32;;;;;;;35.88;16.25;;;;;;;-3.35;79.41;97305.13;5031116;28;20067;-89
2022/12/15 08:10:57;;;;;;;;;;;;;;;-3.22;79.03;97304.88;5022059;28;20033;-89
2022/12/15 08:13:23;;;;;;;36.88;15.80;;;;;;;-3.34;78.98;97287.03;5029539;28;19920;-90
2022/12/15 08:15:54;;;;;;;39.67;16.60;;;;;;;-3.11;78.67;97303.00;5045696;28;20033;-89
2022/12/15 08:18:20;;;;;;;42.47;18.75;;;;;;;-3.10;78.05;97296.94;5048577;28;20396;-88
2022/12/15 08:20:45;;;;;;;46.83;20.90;;;;;;;-2.92;77.29;97289.38;5029421;28;20029;-89
2022/12/15 08:23:11;;;;;;;38.22;16.88;;;;;;;-2.68;76.89;97308.69;5029874;28;20040;-88
2022/12/15 08:25:36;;;;;;;41.33;17.35;;;;;;;-2.62;76.61;97301.25;5030132;28;20548;-88
2022/12/15 08:28:03;;;;;;;40.10;20.00;;;;;;;-2.48;76.09;97315.44;5046692;28;20033;-88
2022/12/15 08:30:31;;;;;;;49.60;22.00;;;;;;;-2.40;75.18;97309.59;5056648;28;20033;-89
2022/12/15 08:32:57;;;;;;;39.63;20.17;;;;;;;-2.50;75.36;97297.59;5029044;28;20706;-88
2022/12/15 08:35:23;;;;;;;35.70;16.10;;;;;;;-2.74;77.70;97335.72;5033046;28;20045;-89
2022/12/15 08:37:49;;;;;;;40.42;18.05;;;;;;;-2.85;77.90;97328.13;5030253;28;20037;-88
2022/12/15 08:40:15;;;;;;;41.05;19.45;;;;;;;-2.81;77.65;97319.25;5024302;28;20036;-89
2022/12/15 08:42:41;;;;;;;45.63;19.35;;;;;;;-2.65;77.01;97319.47;5019154;28;20087;-89
2022/12/15 08:45:07;;;;;;;38.75;18.80;;;;;;;-2.57;76.52;97321.41;5029056;28;20438;-87
2022/12/15 08:47:33;;;;;;;43.67;20.33;;;;;;;-2.50;76.24;97313.00;5026356;28;20091;-89
2022/12/15 08:49:58;;;;;;;42.78;18.63;;;;;;;-2.35;75.87;97315.94;5029181;28;20029;-90
2022/12/15 08:52:24;;;;;;;38.72;18.38;;;;;;;-2.05;74.92;97339.81;5029617;28;20555;-91
2022/12/15 08:54:49;;;;;;;34.30;15.70;;;;;;;-1.91;74.55;97335.06;5028442;28;20044;-89
2022/12/15 08:57:15;;;;;;;32.45;16.15;;;;;;;-1.72;74.42;97343.66;5026464;28;20042;-89
2022/12/15 08:59:40;;;;;;;36.58;16.90;;;;;;;-1.64;73.94;97351.47;5028542;28;20400;-90
2022/12/15 09:02:08;;;;;;;37.28;15.52;;;;;;;-1.68;73.23;97334.69;5024119;28;20034;-90
2022/12/15 09:04:34;;;;;;;36.80;16.00;;;;;;;-1.47;73.20;97360.19;5013420;28;20044;-89
2022/12/15 09:07:07;;;;;;;41.00;17.65;;;;;;;-1.44;72.85;97336.75;5043764;28;20034;-91
2022/12/15 09:09:33;;;;;;;45.08;18.70;;;;;;;-1.25;72.74;97362.41;5028472;28;20104;-90
2022/12/15 09:11:59;;;;;;;38.60;17.30;;;;;;;-1.30;72.52;97341.44;5011848;28;20152;-91
2022/12/15 09:14:24;;;;;;;41.60;17.25;;;;;;;-1.42;72.93;97351.13;5011725;28;20059;-91
2022/12/15 09:16:50;;;;;;;39.47;17.48;;;;;;;-1.34;73.14;97355.53;5030934;28;20031;-90
2022/12/15 09:19:15;;;;;;;42.80;18.25;;;;;;;-1.38;73.33;97370.47;5032692;28;20038;-90
2022/12/15 09:21:43;;;;;;;37.42;15.75;;;;;;;-1.35;73.62;97375.31;5031756;28;20029;-91
2022/12/15 09:24:19;;;;;;;39.97;18.05;;;;;;;-1.25;73.70;97388.13;5033232;28;20030;-90
2022/12/15 09:26:45;;;;;;;36.80;17.85;;;;;;;-1.33;73.71;97358.91;5033056;28;20064;-91
2022/12/15 09:29:14;;;;;;;42.10;19.30;;;;;;;-1.21;73.66;97374.00;5033034;28;20079;-91
2022/12/15 09:31:43;;;;;;;37.85;18.60;;;;;;;-1.12;74.29;97382.66;5032272;28;20037;-91
2022/12/15 09:34:14;;;;;;;39.95;17.92;;;;;;;-1.07;73.93;97375.31;5032932;28;20053;-91
2022/12/15 09:36:39;;;;;;;37.05;16.70;;;;;;;-0.91;73.21;97390.91;5035161;28;20041;-91
2022/12/15 09:39:05;;;;;;;40.03;18.15;;;;;;;-1.00;73.59;97378.94;5031940;28;20052;-90
2022/12/15 09:41:34;;;;;;;37.47;16.92;;;;;;;-0.79;73.25;97399.25;5031542;28;20029;-90
2022/12/15 09:44:16;;;;;;;37.30;18.83;;;;;;;-0.70;72.98;97388.09;5043919;28;20068;-91
2022/12/15 09:47:04;;;;;;;42.65;19.95;;;;;;;-0.70;73.16;97382.13;5030182;28;20630;-92
2022/12/15 09:49:54;;;;;;;41.47;19.02;;;;;;;-0.61;72.03;97365.78;5032562;28;20033;-91
2022/12/15 09:52:34;;;;;;;43.80;19.33;;;;;;;-0.53;71.74;97355.56;5033779;28;20100;-92
2022/12/15 09:55:01;;;;;;;40.75;18.02;;;;;;;-0.45;71.11;97349.69;5031970;28;20030;-92
2022/12/15 09:57:41;;;;;;;41.30;19.20;;;;;;;-0.12;71.29;97332.69;5029346;28;20035;-91
2022/12/15 10:00:39;;;;;;;36.33;17.23;;;;;;;-0.56;71.17;97323.19;5031550;28;20404;-91
2022/12/15 10:03:51;;;;;;;38.70;16.45;;;;;;;-0.57;72.06;97341.38;5017215;28;20038;-90
2022/12/15 10:06:49;;;;;;;38.50;16.67;;;;;;;-0.46;72.40;97340.34;5024644;28;20079;-91
2022/12/15 10:09:40;;;;;;;43.72;18.42;;;;;;;-0.52;72.14;97354.63;5023109;28;20433;-91
2022/12/15 10:12:24;;;;;;;34.38;15.80;;;;;;;-0.95;72.44;97348.41;5020590;28;20050;-89
2022/12/15 10:15:24;;;;;;;37.65;15.40;;;;;;;-1.31;74.69;97351.88;5024700;28;20063;-89
2022/12/15 10:18:12;;;;;;;47.97;20.25;;;;;;;-0.82;74.29;97353.22;5030923;28;20044;-90
2022/12/15 10:20:38;;;;;;;34.47;17.70;;;;;;;-1.24;74.24;97363.22;5022979;28;20038;-90
2022/12/15 10:23:13;;;;;;;44.75;20.13;;;;;;;-1.08;74.89;97358.22;5025851;28;20175;-90
2022/12/15 10:25:47;;;;;;;42.45;20.33;;;;;;;-0.83;74.45;97346.44;5030326;28;20025;-89
2022/12/15 10:28:27;;;;;;;47.63;20.70;;;;;;;-0.68;73.10;97360.41;5025675;28;20083;-89
2022/12/15 10:31:04;;;;;;;50.35;21.75;;;;;;;-0.52;72.62;97354.63;5031160;28;20030;-90
2022/12/15 10:33:36;;;;;;;47.47;20.83;;;;;;;-0.31;71.56;97357.66;5044928;28;20037;-90
2022/12/15 10:36:10;;;;;;;45.95;21.23;;;;;;;-0.29;71.66;97335.16;5028792;28;20033;-90
2022/12/15 10:38:41;;;;;;;43.00;19.50;;;;;;;-0.16;71.55;97357.97;5025311;28;20037;-89
2022/12/15 10:41:10;;;;;;;;;;;;;;;-0.82;72.78;97348.88;5026890;28;20033;-89
2022/12/15 10:43:40;;;;;;;41.20;19.40;;;;;;;-0.89;73.28;97316.94;5031409;28;20509;-90
2022/12/15 10:46:21;;;;;;;35.65;16.92;;;;;;;-0.45;72.93;97335.03;5030442;28;20505;-89
2022/12/15 10:48:55;;;;;;;9.13;5.88;;;;;;;-0.90;72.91;97317.91;5046894;28;20056;-88
2022/12/15 10:51:35;;;;;;;39.00;17.38;;;;;;;-0.74;74.24;97314.66;5032566;28;20041;-89
2022/12/15 10:54:15;;;;;;;46.78;21.55;;;;;;;-0.65;74.11;97312.97;5028235;28;20026;-89
2022/12/15 10:56:53;;;;;;;39.38;19.15;;;;;;;-0.64;74.40;97293.97;5032132;28;20061;-89
2022/12/15 10:59:24;;;;;;;38.17;18.42;;;;;;;-0.54;73.21;97292.13;5028889;28;20052;-89
2022/12/15 11:01:51;;;;;;;38.78;17.80;;;;;;;-0.82;73.38;97283.69;5031380;28;20044;-89
2022/12/15 11:04:30;;;;;;;42.65;19.67;;;;;;;-0.74;73.88;97288.09;5031239;28;20088;-89
2022/12/15 11:07:13;;;;;;;37.85;17.88;;;;;;;-1.21;74.64;97271.09;5022236;28;20057;-89
2022/12/15 11:09:39;;;;;;;34.60;17.27;;;;;;;-1.16;74.95;97283.53;5028705;28;20030;-90
2022/12/15 11:15:22;;;;;;;42.90;19.15;;;;;;;-1.10;74.75;97275.22;5012055;28;20041;-89
2022/12/15 11:18:36;;;;;;;40.00;19.73;;;;;;;-1.16;75.72;97276.63;5029089;28;20038;-89
2022/12/15 11:21:43;;;;;;;44.88;19.33;;;;;;;-0.93;75.69;97289.06;5029759;28;20049;-89
2022/12/15 11:24:39;;;;;;;41.88;20.10;;;;;;;-0.57;73.73;97275.19;5042400;28;20030;-89
2022/12/15 11:27:20;;;;;;;38.08;18.38;;;;;;;-0.52;72.93;97277.34;5026653;28;20064;-88
2022/12/15 11:29:58;;;;;;;33.85;16.13;;;;;;;-0.72;73.41;97286.16;5024669;28;20087;-89
2022/12/15 11:32:28;;;;;;;46.92;21.20;;;;;;;-0.77;74.33;97283.25;5018104;28;20033;-88
2022/12/15 11:34:54;;;;;;;48.47;20.50;;;;;;;-0.96;74.18;97269.59;5045263;28;20041;-86
2022/12/15 11:37:43;;;;;;;47.80;22.40;;;;;;;-0.71;74.12;97283.47;5028579;28;20037;-86
2022/12/15 11:40:30;;;;;;;44.72;21.17;;;;;;;-0.41;73.24;97278.88;5025701;28;20108;-86
2022/12/15 11:43:23;;;;;;;34.97;15.93;;;;;;;-0.66;73.21;97272.69;5044379;28;20384;-86
2022/12/15 11:46:19;;;;;;;41.92;19.80;;;;;;;-0.70;73.32;97284.28;5035968;28;20034;-86
2022/12/15 11:49:28;;;;;;;47.35;21.75;;;;;;;-0.74;73.34;97268.31;5026960;28;20041;-87
2022/12/15 11:52:02;;;;;;;51.90;22.52;;;;;;;-0.51;73.05;97281.53;5028636;28;20037;-87
2022/12/15 11:54:54;;;;;;;38.67;19.13;;;;;;;-0.90;72.79;97263.00;5028988;28;20029;-87
2022/12/15 11:57:47;;;;;;;44.13;18.25;;;;;;;-0.83;73.42;97267.44;5028438;28;20037;-86
2022/12/15 12:00:18;;;;;;;44.63;20.35;;;;;;;-0.86;73.33;97243.75;5021991;28;20405;-86
2022/12/15 12:03:24;;;;;;;40.65;19.48;;;;;;;-0.66;73.38;97255.50;5028117;28;20037;-86
2022/12/15 12:06:10;;;;;;;38.63;17.67;;;;;;;-0.58;73.36;97252.19;5027891;28;20125;-86
2022/12/15 12:09:11;;;;;;;41.33;19.98;;;;;;;-0.64;72.39;97232.97;5020969;28;20095;-86
2022/12/15 12:11:47;;;;;;;31.47;16.10;;;;;;;-0.70;72.18;97240.50;5028659;28;20354;-86
2022/12/15 12:14:53;;;;;;;38.83;17.08;;;;;;;-0.43;72.11;97260.16;5013063;28;20276;-86
2022/12/15 12:17:41;;;;;;;32.47;15.35;;;;;;;-0.40;70.77;97250.38;5027556;28;20109;-86
2022/12/15 12:20:19;;;;;;;36.10;15.88;;;;;;;-0.47;71.13;97241.63;5024996;28;20349;-86
2022/12/15 12:23:37;;;;;;;32.42;15.45;;;;;;;-0.49;70.27;97246.09;5027758;28;20044;-88
2022/12/15 12:26:25;;;;;;;35.30;17.00;;;;;;;-0.50;70.93;97238.53;5006449;28;20030;-88
2022/12/15 12:29:04;;;;;;;32.85;15.80;;;;;;;-0.43;71.77;97232.63;5022943;28;20052;-87
2022/12/15 12:31:49;;;;;;;31.20;15.10;;;;;;;-0.45;71.41;97216.53;5026322;28;20535;-88
2022/12/15 12:34:46;;;;;;;35.03;15.93;;;;;;;-0.21;70.37;97233.09;5025443;28;20049;-88
2022/12/15 12:37:45;;;;;;;31.48;14.80;;;;;;;-0.25;70.05;97244.66;5022829;28;20041;-88
2022/12/15 12:40:29;;;;;;;36.53;16.95;;;;;;;-0.06;71.00;97241.84;5030588;28;20044;-88
2022/12/15 12:42:58;;;;;;;39.72;17.00;;;;;;;-0.14;70.73;97228.94;5035852;28;20501;-88
2022/12/15 12:46:20;;;;;;;40.97;19.10;;;;;;;-0.04;70.81;97239.94;5023913;28;20034;-88
2022/12/15 12:48:49;;;;;;;38.38;18.05;;;;;;;0.17;70.94;97219.72;5027006;28;20053;-88
2022/12/15 12:51:23;;;;;;;37.47;17.38;;;;;;;0.09;70.14;97227.44;5031089;28;20037;-88
2022/12/15 12:53:50;;;;;;;43.25;18.13;;;;;;;0.01;69.79;97248.03;5030231;28;20041;-88
2022/12/15 12:56:44;;;;;;;36.90;17.35;;;;;;;-0.05;70.17;97240.91;5031530;28;20026;-88
2022/12/15 12:59:28;;;;;;;38.40;17.98;;;;;;;-0.18;70.47;97237.91;5026962;28;20045;-88
2022/12/15 13:01:55;;;;;;;41.05;19.17;;;;;;;-0.08;71.40;97228.31;5031652;28;20501;-88
2022/12/15 13:04:27;;;;;;;41.40;19.08;;;;;;;0.03;70.59;97230.63;5027807;28;20111;-88
2022/12/15 13:06:53;;;;;;;40.35;18.58;;;;;;;0.25;70.80;97229.28;5031228;28;20400;-88
2022/12/15 13:09:22;;;;;;;40.60;19.48;;;;;;;0.04;70.56;97226.28;5028358;28;20026;-88
2022/12/15 13:11:48;;;;;;;38.22;18.58;;;;;;;-0.10;70.83;97219.94;5026585;28;20120;-88
2022/12/15 13:14:19;;;;;;;39.85;19.33;;;;;;;-0.08;70.73;97187.06;5032634;28;20108;-89
2022/12/15 13:16:46;;;;;;;42.17;19.90;;;;;;;-0.36;70.94;97176.13;5028360;28;20041;-88
2022/12/15 13:19:13;;;;;;;40.70;18.73;;;;;;;-0.19;71.94;97183.00;5032427;28;20033;-88
2022/12/15 13:21:41;;;;;;;40.08;19.15;;;;;;;0.08;71.66;97165.72;5032807;28;20049;-88
2022/12/15 13:24:29;;;;;;;39.88;19.05;;;;;;;0.22;70.71;97167.69;5031717;28;20068;-88
2022/12/15 13:27:11;;;;;;;36.60;17.88;;;;;;;0.32;70.98;97170.94;5013361;28;20092;-88
2022/12/15 13:30:02;;;;;;;33.97;17.88;;;;;;;0.40;70.37;97170.94;5022310;28;20116;-88
2022/12/15 13:32:36;;;;;;;35.83;18.42;;;;;;;0.42;70.68;97175.94;5028133;28;20089;-88
2022/12/15 13:35:11;;;;;;;43.25;19.52;;;;;;;0.55;70.17;97168.56;5032128;28;20125;-89
2022/12/15 13:37:42;;;;;;;41.35;19.55;;;;;;;0.47;70.10;97169.34;5021867;28;20045;-88
2022/12/15 13:40:34;;;;;;;47.92;23.02;;;;;;;0.30;71.23;97159.16;5018134;28;20065;-88
2022/12/15 13:43:03;;;;;;;41.00;19.67;;;;;;;0.39;71.12;97158.22;5014391;28;20111;-88
2022/12/15 13:45:48;;;;;;;46.60;20.95;;;;;;;0.21;71.23;97146.25;5017590;28;20100;-88
2022/12/15 13:48:29;;;;;;;44.20;20.48;;;;;;;0.13;71.83;97143.66;5032188;28;20033;-88
2022/12/15 13:51:04;;;;;;;45.35;22.38;;;;;;;0.16;71.83;97153.63;5028022;28;20527;-89
2022/12/15 13:53:41;;;;;;;43.30;19.73;;;;;;;0.33;71.72;97148.53;5030769;28;20400;-87
2022/12/15 13:56:09;;;;;;;46.88;21.17;;;;;;;0.39;71.84;97163.38;5029806;28;20393;-87
2022/12/15 13:58:46;;;;;;;42.25;21.52;;;;;;;0.15;71.57;97152.03;5031755;28;20025;-86
2022/12/15 14:01:29;;;;;;;50.40;22.25;;;;;;;0.24;71.78;97170.91;5029991;28;20102;-86
2022/12/15 14:03:57;;;;;;;41.05;19.67;;;;;;;0.16;72.30;97153.63;5013585;28;20029;-87
2022/12/15 14:06:37;;;;;;;45.47;21.35;;;;;;;0.27;72.24;97149.97;5028554;28;20029;-87
2022/12/15 14:09:05;;;;;;;44.53;20.48;;;;;;;0.16;71.97;97163.16;5031397;28;20034;-86
2022/12/15 14:11:35;;;;;;;42.92;19.80;;;;;;;0.02;72.05;97172.31;5047167;28;20064;-87